createdAt,value
2022-09-04T00:00:52.133Z,1.30
2022-09-04T00:03:47.462Z,1.45
2022-09-04T00:06:25.056Z,1.50
2022-09-04T00:09:39.680Z,1.50
2022-09-04T00:12:09.310Z,1.42
2022-09-04T00:15:08.987Z,1.40
2022-09-04T00:17:48.151Z,1.45
2022-09-04T00:20:50.819Z,1.67
2022-09-04T00:23:54.480Z,1.10
2022-09-04T00:27:11.840Z,1.33
2022-09-04T00:29:57.732Z,1.40
2022-09-04T00:32:41.858Z,1.30
2022-09-04T00:35:18.744Z,1.30
2022-09-04T00:37:55.688Z,1.30
2022-09-04T00:40:33.883Z,1.25
2022-09-04T00:43:29.742Z,1.10
2022-09-04T00:46:06.875Z,1.10
2022-09-04T00:49:08.105Z,1.00
2022-09-04T00:52:01.236Z,0.90
2022-09-04T00:54:54.104Z,1.00
2022-09-04T00:57:41.047Z,1.00
2022-09-04T01:00:21.903Z,1.05
2022-09-04T01:03:58.471Z,1.00
2022-09-04T01:06:48.317Z,1.23
2022-09-04T01:10:04.999Z,1.30
2022-09-04T01:12:46.980Z,1.30
2022-09-04T01:15:42.570Z,1.00
2022-09-04T01:18:31.126Z,1.13
2022-09-04T01:21:30.883Z,0.90
2022-09-04T01:24:36.488Z,1.27
2022-09-04T01:27:37.024Z,0.80
2022-09-04T01:30:22.788Z,0.68
2022-09-04T01:33:12.935Z,0.60
2022-09-04T01:36:28.310Z,0.50
2022-09-04T01:39:01.180Z,0.80
2022-09-04T01:41:45.859Z,1.30
2022-09-04T01:44:14.020Z,1.13
2022-09-04T01:47:11.743Z,1.35
2022-09-04T01:49:50.654Z,1.40
2022-09-04T01:53:27.794Z,1.10
2022-09-04T01:56:18.124Z,1.30
2022-09-04T01:59:26.732Z,1.27
2022-09-04T02:02:10.848Z,1.10
2022-09-04T02:05:18.006Z,1.10
2022-09-04T02:07:53.681Z,1.30
2022-09-04T02:10:50.437Z,1.30
2022-09-04T02:13:36.728Z,1.10
2022-09-04T02:16:31.063Z,1.30
2022-09-04T02:19:18.451Z,1.10
2022-09-04T02:22:35.589Z,1.20
2022-09-04T02:25:04.010Z,1.40
2022-09-04T02:28:13.137Z,1.40
2022-09-04T02:31:24.306Z,1.25
2022-09-04T02:34:18.767Z,1.20
2022-09-04T02:37:00.523Z,1.10
2022-09-04T02:40:33.540Z,1.10
2022-09-04T02:43:57.610Z,0.98
2022-09-04T02:47:01.903Z,1.38
2022-09-04T02:49:55.425Z,1.20
2022-09-04T02:53:06.558Z,1.25
2022-09-04T02:56:17.553Z,1.30
2022-09-04T02:59:12.154Z,0.90
2022-09-04T03:02:01.173Z,0.98
2022-09-04T03:04:49.872Z,1.05
2022-09-04T03:07:44.113Z,1.00
2022-09-04T03:10:19.384Z,1.33
2022-09-04T03:13:01.955Z,1.00
2022-09-04T03:15:50.819Z,1.30
2022-09-04T03:18:32.341Z,1.30
2022-09-04T03:21:22.695Z,1.30
2022-09-04T03:24:06.632Z,1.35
2022-09-04T03:26:42.012Z,1.38
2022-09-04T03:29:53.643Z,1.35
2022-09-04T03:32:44.864Z,1.50
2022-09-04T03:35:32.696Z,1.10
2022-09-04T03:38:48.996Z,1.48
2022-09-04T03:41:58.716Z,1.38
2022-09-04T03:44:34.361Z,1.33
2022-09-04T03:47:41.022Z,1.40
2022-09-04T03:50:33.387Z,1.67
2022-09-04T03:53:21.219Z,1.55
2022-09-04T03:56:16.893Z,1.60
2022-09-04T03:59:32.591Z,1.50
2022-09-04T04:02:24.164Z,1.83
2022-09-04T04:05:26.688Z,1.17
2022-09-04T04:11:41.323Z,1.15
2022-09-04T04:14:57.411Z,1.15
2022-09-04T04:18:02.410Z,1.23
2022-09-04T04:20:41.932Z,1.20
2022-09-04T04:24:18.901Z,1.02
2022-09-04T04:26:58.742Z,0.95
2022-09-04T04:30:09.083Z,0.90
2022-09-04T04:32:43.966Z,0.82
2022-09-04T04:35:52.222Z,1.00
2022-09-04T04:39:25.788Z,0.95
2022-09-04T04:42:36.228Z,0.93
2022-09-04T04:45:52.695Z,1.02
2022-09-04T04:48:49.956Z,0.50
2022-09-04T04:51:42.736Z,0.50
2022-09-04T04:55:07.703Z,0.57
2022-09-04T04:57:56.742Z,0.70
2022-09-04T05:00:34.792Z,0.73
2022-09-04T05:03:25.115Z,0.70
2022-09-04T05:06:31.500Z,0.70
2022-09-04T05:09:36.711Z,0.90
2022-09-04T05:12:53.627Z,0.85
2022-09-04T05:16:09.444Z,0.80
2022-09-04T05:18:50.239Z,1.00
2022-09-04T05:21:34.632Z,0.88
2022-09-04T05:24:39.192Z,0.90
2022-09-04T05:27:46.319Z,0.80
2022-09-04T05:31:11.275Z,0.60
2022-09-04T05:34:15.506Z,0.90
2022-09-04T05:36:53.351Z,0.90
2022-09-04T05:39:37.043Z,0.93
2022-09-04T05:42:11.497Z,1.02
2022-09-04T05:44:57.538Z,1.08
2022-09-04T05:48:16.085Z,1.08
2022-09-04T05:51:08.950Z,1.17
2022-09-04T05:54:16.301Z,1.20
2022-09-04T05:57:34.002Z,1.25
2022-09-04T06:00:08.564Z,1.13
2022-09-04T06:03:09.531Z,1.30
2022-09-04T06:06:06.614Z,1.60
2022-09-04T06:09:21.353Z,1.60
2022-09-04T06:12:29.362Z,1.90
2022-09-04T06:15:22.118Z,2.30
2022-09-04T06:18:11.398Z,2.25
2022-09-04T06:21:03.539Z,2.28
2022-09-04T06:24:27.873Z,2.13
2022-09-04T06:27:04.780Z,2.50
2022-09-04T06:30:04.239Z,2.60
2022-09-04T06:33:03.676Z,2.40
2022-09-04T06:36:05.191Z,2.55
2022-09-04T06:39:17.265Z,2.67
2022-09-04T06:42:02.538Z,2.58
2022-09-04T06:45:14.344Z,2.80
2022-09-04T06:47:46.545Z,2.80
2022-09-04T06:50:45.406Z,2.90
2022-09-04T06:54:00.924Z,2.83
2022-09-04T06:57:06.610Z,2.88
2022-09-04T07:00:08.330Z,2.90
2022-09-04T07:06:09.915Z,2.70
2022-09-04T07:08:37.829Z,2.70
2022-09-04T07:11:17.695Z,2.88
2022-09-04T07:14:20.102Z,3.22
2022-09-04T07:17:29.375Z,2.97
2022-09-04T07:20:19.432Z,3.15
2022-09-04T07:23:28.680Z,3.17
2022-09-04T07:26:31.868Z,2.92
2022-09-04T07:29:29.676Z,2.88
2022-09-04T07:32:21.121Z,3.00
2022-09-04T07:35:02.612Z,3.13
2022-09-04T07:40:31.841Z,2.80
2022-09-04T07:43:23.995Z,2.95
2022-09-04T07:46:22.324Z,2.85
2022-09-04T07:49:23.964Z,3.03
2022-09-04T07:52:27.020Z,3.15
2022-09-04T07:55:36.191Z,2.90
2022-09-04T07:58:44.928Z,2.65
2022-09-04T08:01:55.158Z,3.13
2022-09-04T08:04:47.640Z,2.65
2022-09-04T08:07:52.844Z,2.70
2022-09-04T08:11:00.719Z,2.28
2022-09-04T08:14:00.548Z,2.60
2022-09-04T08:16:47.684Z,2.88
2022-09-04T08:19:48.788Z,2.67
2022-09-04T08:22:43.099Z,2.47
2022-09-04T08:26:01.515Z,2.20
2022-09-04T08:29:21.841Z,1.95
2022-09-04T08:32:38.312Z,2.10
2022-09-04T08:35:21.666Z,2.28
2022-09-04T08:38:28.803Z,2.20
2022-09-04T08:41:17.908Z,1.60
2022-09-04T08:44:21.512Z,2.00
2022-09-04T08:47:38.949Z,1.42
2022-09-04T08:50:36.504Z,1.90
2022-09-04T08:53:56.657Z,1.90
2022-09-04T08:56:38.119Z,1.60
2022-09-04T08:59:42.691Z,1.60
2022-09-04T09:03:08.487Z,1.73
2022-09-04T09:06:06.751Z,1.50
2022-09-04T09:09:18.562Z,1.38
2022-09-04T09:11:58.268Z,1.55
2022-09-04T09:15:03.792Z,1.80
2022-09-04T09:17:51.008Z,1.50
2022-09-04T09:21:01.275Z,1.40
2022-09-04T09:23:52.254Z,1.50
2022-09-04T09:26:33.709Z,1.65
2022-09-04T09:29:04.970Z,1.83
2022-09-04T09:32:07.268Z,1.45
2022-09-04T09:35:09.771Z,1.30
2022-09-04T09:38:04.507Z,1.25
2022-09-04T09:41:16.373Z,1.50
2022-09-04T09:44:18.421Z,1.30
2022-09-04T09:47:32.806Z,1.13
2022-09-04T09:50:48.893Z,1.17
2022-09-04T09:53:56.486Z,1.30
2022-09-04T09:56:55.716Z,1.40
2022-09-04T10:00:09.553Z,1.30
2022-09-04T10:03:02.488Z,1.60
2022-09-04T10:06:21.218Z,1.33
2022-09-04T10:09:25.103Z,1.30
2022-09-04T10:12:30.993Z,1.30
2022-09-04T10:15:49.293Z,1.23
2022-09-04T10:18:57.440Z,1.50
2022-09-04T10:21:56.332Z,1.38
2022-09-04T10:24:54.783Z,1.20
2022-09-04T10:27:43.984Z,1.20
2022-09-04T10:30:22.501Z,1.48
2022-09-04T10:33:12.041Z,1.35
2022-09-04T10:36:19.743Z,1.10
2022-09-04T10:39:24.291Z,1.35
2022-09-04T10:42:09.193Z,1.00
2022-09-04T10:44:47.125Z,1.25
2022-09-04T10:48:01.964Z,1.10
2022-09-04T10:51:02.409Z,1.20
2022-09-04T10:53:49.934Z,1.70
2022-09-04T10:57:01.931Z,1.60
2022-09-04T10:59:48.938Z,1.25
2022-09-04T11:02:55.021Z,1.15
2022-09-04T11:06:15.820Z,1.25
2022-09-04T11:08:49.884Z,1.03
2022-09-04T11:11:44.980Z,1.30
2022-09-04T11:14:28.339Z,1.20
2022-09-04T11:17:24.504Z,1.20
2022-09-04T11:20:45.123Z,1.20
2022-09-04T11:23:54.397Z,1.00
2022-09-04T11:26:47.451Z,0.93
2022-09-04T11:30:02.912Z,0.90
2022-09-04T11:32:58.301Z,0.80
2022-09-04T11:36:09.502Z,0.88
2022-09-04T11:38:59.987Z,0.90
2022-09-04T11:42:12.569Z,0.80
2022-09-04T11:45:21.627Z,1.00
2022-09-04T11:48:09.184Z,0.75
2022-09-04T11:51:01.607Z,0.80
2022-09-04T11:54:19.638Z,0.90
2022-09-04T11:56:54.428Z,0.70
2022-09-04T11:59:58.054Z,0.85
2022-09-04T12:02:44.355Z,0.80
2022-09-04T12:06:02.405Z,0.80
2022-09-04T12:09:16.540Z,1.17
2022-09-04T12:12:12.260Z,0.98
2022-09-04T12:15:18.116Z,0.88
2022-09-04T12:18:31.343Z,0.82
2022-09-04T12:21:41.137Z,0.82
2022-09-04T12:24:44.102Z,1.20
2022-09-04T12:27:53.420Z,0.80
2022-09-04T12:31:23.847Z,0.70
2022-09-04T12:34:08.098Z,0.70
2022-09-04T12:37:07.832Z,0.80
2022-09-04T12:40:19.673Z,0.90
2022-09-04T12:43:30.980Z,0.70
2022-09-04T12:46:24.304Z,0.85
2022-09-04T12:49:18.208Z,0.90
2022-09-04T12:51:55.982Z,0.80
2022-09-04T12:54:39.014Z,0.90
2022-09-04T12:57:55.693Z,1.00
2022-09-04T13:00:40.802Z,0.95
2022-09-04T13:03:42.600Z,1.00
2022-09-04T13:06:10.813Z,1.00
2022-09-04T13:09:03.648Z,1.10
2022-09-04T13:11:56.057Z,1.00
2022-09-04T13:15:08.842Z,0.82
2022-09-04T13:18:21.285Z,1.00
2022-09-04T13:21:16.628Z,1.08
2022-09-04T13:24:07.703Z,1.00
2022-09-04T13:26:54.500Z,0.80
2022-09-04T13:30:02.357Z,0.90
2022-09-04T13:32:43.609Z,0.88
2022-09-04T13:36:09.162Z,0.90
2022-09-04T13:39:25.260Z,0.68
2022-09-04T13:42:25.528Z,0.90
2022-09-04T13:45:23.206Z,0.80
2022-09-04T13:48:06.788Z,1.00
2022-09-04T13:50:49.002Z,0.90
2022-09-04T13:53:36.024Z,0.88
2022-09-04T13:56:13.379Z,0.90
2022-09-04T13:58:49.745Z,1.00
2022-09-04T14:01:23.960Z,0.73
2022-09-04T14:04:05.038Z,1.00
2022-09-04T14:06:37.215Z,0.90
2022-09-04T14:09:08.029Z,0.80
2022-09-04T14:12:01.001Z,0.60
2022-09-04T14:15:05.697Z,0.85
2022-09-04T14:17:51.381Z,0.70
2022-09-04T14:20:33.707Z,0.70
2022-09-04T14:23:47.878Z,0.73
2022-09-04T14:27:11.288Z,0.80
2022-09-04T14:29:49.156Z,0.82
2022-09-04T14:32:45.292Z,0.80
2022-09-04T14:35:45.738Z,0.70
2022-09-04T14:38:39.642Z,0.80
2022-09-04T14:41:44.610Z,0.95
2022-09-04T14:45:03.795Z,0.90
2022-09-04T14:47:47.354Z,1.20
2022-09-04T14:50:19.272Z,0.80
2022-09-04T14:53:05.913Z,0.90
2022-09-04T14:56:02.199Z,0.63
2022-09-04T14:58:37.560Z,2.10
2022-09-04T15:01:27.098Z,1.00
2022-09-04T15:04:23.371Z,1.05
2022-09-04T15:07:12.373Z,0.70
2022-09-04T15:09:48.906Z,0.80
2022-09-04T15:12:34.462Z,0.70
2022-09-04T15:15:09.791Z,0.75
2022-09-04T15:17:47.242Z,0.80
2022-09-04T15:20:31.973Z,0.75
2022-09-04T15:23:32.533Z,0.70
2022-09-04T15:26:08.591Z,0.95
2022-09-04T15:29:12.502Z,0.80
2022-09-04T15:31:43.060Z,0.60
2022-09-04T15:34:24.439Z,0.70
2022-09-04T15:36:54.855Z,0.70
2022-09-04T15:40:22.503Z,0.77
2022-09-04T15:43:06.114Z,0.60
2022-09-04T15:45:53.453Z,0.60
2022-09-04T15:49:21.769Z,0.80
2022-09-04T15:52:24.080Z,0.70
2022-09-04T15:54:58.515Z,0.95
2022-09-04T15:57:50.233Z,0.68
2022-09-04T16:00:25.216Z,0.57
2022-09-04T16:03:23.221Z,0.60
2022-09-04T16:05:57.399Z,0.77
2022-09-04T16:09:28.020Z,0.65
2022-09-04T16:12:33.267Z,0.70
2022-09-04T16:15:16.276Z,0.77
2022-09-04T16:18:00.266Z,0.80
2022-09-04T16:20:51.610Z,0.88
2022-09-04T16:23:34.090Z,0.70
2022-09-04T16:26:33.829Z,0.60
2022-09-04T16:29:28.973Z,0.68
2022-09-04T16:31:58.726Z,0.70
2022-09-04T16:34:39.564Z,0.70
2022-09-04T16:37:26.223Z,0.70
2022-09-04T16:40:27.382Z,0.80
2022-09-04T16:43:40.388Z,0.70
2022-09-04T16:46:38.645Z,0.70
2022-09-04T16:49:49.481Z,0.70
2022-09-04T16:52:22.133Z,0.70
2022-09-04T16:55:14.198Z,0.88
2022-09-04T16:58:33.899Z,0.60
2022-09-04T17:01:18.241Z,0.82
2022-09-04T17:04:14.620Z,0.70
2022-09-04T17:07:02.651Z,0.80
2022-09-04T17:10:27.278Z,0.73
2022-09-04T17:13:15.818Z,0.80
2022-09-04T17:16:12.163Z,1.40
2022-09-04T17:18:55.621Z,0.93
2022-09-04T17:27:51.709Z,0.85
2022-09-04T17:28:58.468Z,0.70
2022-09-04T17:29:24.721Z,0.70
2022-09-04T17:31:53.671Z,0.60
2022-09-04T17:40:48.981Z,0.80
2022-09-04T17:40:54.608Z,0.68
2022-09-04T17:41:39.957Z,0.90
2022-09-04T17:44:31.878Z,0.75
2022-09-04T17:47:31.664Z,0.80
2022-09-04T17:50:02.264Z,0.70
2022-09-04T17:52:54.846Z,0.63
2022-09-04T17:55:24.393Z,0.80
2022-09-04T17:58:07.427Z,0.90
2022-09-04T18:00:50.495Z,0.80
2022-09-04T18:04:20.563Z,0.75
2022-09-04T18:09:56.884Z,0.80
2022-09-04T18:13:36.616Z,0.85
2022-09-04T18:16:47.838Z,0.93
2022-09-04T18:19:49.757Z,0.85
2022-09-04T18:22:49.801Z,1.10
2022-09-04T18:25:23.052Z,1.15
2022-09-04T18:28:26.251Z,1.38
2022-09-04T18:37:07.238Z,1.38
2022-09-04T18:37:18.384Z,1.80
2022-09-04T18:37:44.104Z,2.42
2022-09-04T18:40:53.527Z,3.17
2022-09-04T18:50:24.715Z,3.17
2022-09-04T18:50:29.376Z,2.50
2022-09-04T18:50:51.122Z,2.03
2022-09-04T18:52:16.972Z,1.85
2022-09-04T18:54:52.837Z,1.90
2022-09-04T18:57:55.317Z,1.30
2022-09-04T19:00:35.007Z,1.05
2022-09-04T19:03:53.085Z,1.00
2022-09-04T19:07:08.026Z,1.13
2022-09-04T19:10:14.570Z,1.20
2022-09-04T19:12:53.868Z,1.25
2022-09-04T19:15:36.590Z,0.98
2022-09-04T19:18:35.781Z,1.27
2022-09-04T19:21:21.895Z,1.33
2022-09-04T19:24:34.372Z,1.40
2022-09-04T19:27:37.618Z,1.50
2022-09-04T19:30:25.199Z,1.45
2022-09-04T19:32:59.870Z,1.60
2022-09-04T19:36:05.781Z,1.55
2022-09-04T19:45:55.904Z,1.65
2022-09-04T19:46:00.849Z,1.70
2022-09-04T19:46:01.273Z,1.52
2022-09-04T19:50:16.874Z,1.30
2022-09-04T19:53:23.060Z,1.10
2022-09-04T19:55:39.191Z,1.40
2022-09-04T19:58:18.004Z,1.23
2022-09-04T20:01:01.168Z,1.58
2022-09-04T20:04:07.052Z,1.77
2022-09-04T20:06:46.815Z,1.63
2022-09-04T20:09:34.412Z,1.50
2022-09-04T20:12:36.864Z,1.70
2022-09-04T20:15:12.827Z,1.50
2022-09-04T20:18:21.076Z,1.20
2022-09-04T20:21:07.702Z,1.42
2022-09-04T20:23:59.509Z,1.40
2022-09-04T20:26:35.729Z,1.17
2022-09-04T20:29:40.616Z,1.17
2022-09-04T20:32:26.800Z,1.40
2022-09-04T20:35:13.871Z,1.08
2022-09-04T20:37:53.745Z,1.48
2022-09-04T20:40:43.597Z,1.40
2022-09-04T20:43:51.854Z,1.40
2022-09-04T20:52:45.637Z,1.27
2022-09-04T20:52:50.066Z,1.23
2022-09-04T20:52:56.429Z,1.30
2022-09-04T20:56:42.242Z,1.40
2022-09-04T21:03:10.062Z,1.35
2022-09-04T21:03:21.750Z,1.50
2022-09-04T21:06:17.738Z,1.45
2022-09-04T21:09:06.765Z,1.50
2022-09-04T21:11:42.506Z,1.40
2022-09-04T21:14:45.892Z,1.40
2022-09-04T21:17:34.677Z,1.50
2022-09-04T21:20:29.591Z,1.67
2022-09-04T21:23:34.943Z,1.70
2022-09-04T21:26:24.018Z,1.60
2022-09-04T21:29:17.677Z,1.80
2022-09-04T21:32:19.912Z,1.50
2022-09-04T21:35:13.346Z,1.20
2022-09-04T21:37:50.909Z,1.50
2022-09-04T21:40:53.720Z,1.40
2022-09-04T21:44:06.574Z,1.40
2022-09-04T21:47:11.921Z,1.40
2022-09-04T21:50:30.768Z,1.40
2022-09-04T21:53:47.190Z,1.35
2022-09-04T22:02:30.401Z,1.48
2022-09-04T22:02:41.700Z,1.30
2022-09-04T22:03:13.734Z,1.60
2022-09-04T22:06:03.740Z,1.60
2022-09-04T22:12:50.223Z,1.60
2022-09-04T22:13:29.384Z,1.38
2022-09-04T22:15:09.844Z,1.70
2022-09-04T22:18:23.575Z,1.42
2022-09-04T22:21:13.313Z,1.55
2022-09-04T22:24:21.829Z,1.90
2022-09-04T22:27:37.714Z,1.52
2022-09-04T22:30:23.512Z,1.48
2022-09-04T22:33:15.899Z,1.50
2022-09-04T22:36:14.198Z,1.55
2022-09-04T22:39:32.498Z,1.63
2022-09-04T22:42:33.527Z,1.50
2022-09-04T22:45:44.878Z,2.13
2022-09-04T22:49:12.429Z,1.80
2022-09-04T22:52:33.349Z,1.60
2022-09-04T22:56:22.755Z,1.95
2022-09-04T22:58:53.113Z,1.40
2022-09-04T23:02:13.988Z,1.38
2022-09-04T23:04:59.966Z,1.50
2022-09-04T23:13:48.066Z,1.70
2022-09-04T23:13:49.257Z,1.40
2022-09-04T23:14:00.921Z,1.50
2022-09-04T23:16:42.254Z,1.45
2022-09-04T23:24:29.887Z,1.60
2022-09-04T23:26:42.859Z,1.58
2022-09-04T23:26:58.361Z,1.60
2022-09-04T23:29:49.778Z,1.55
2022-09-04T23:32:31.287Z,1.50
2022-09-04T23:35:30.408Z,1.45
2022-09-04T23:38:34.268Z,1.60
2022-09-04T23:41:34.530Z,1.58
2022-09-04T23:44:25.368Z,1.42
2022-09-04T23:47:49.510Z,2.83
2022-09-04T23:50:29.470Z,5.53
2022-09-04T23:53:20.297Z,14.55
2022-09-04T23:56:15.558Z,11.57
2022-09-04T23:59:26.361Z,4.82
